sensor_id;sensor_type;location;lat;lon;timestamp;temperature;humidity
36790;DHT22;22740;52.182;8.780;2023-12-04T00:00:21;-1.70;99.90
36790;DHT22;22740;52.182;8.780;2023-12-04T00:06:23;-1.60;99.90
36790;DHT22;22740;52.182;8.780;2023-12-04T00:12:25;-1.70;99.90
36790;DHT22;22740;52.182;8.780;2023-12-04T00:18:28;-1.60;99.90
36790;DHT22;22740;52.182;8.780;2023-12-04T00:24:31;-1.60;99.90
36790;DHT22;22740;52.182;8.780;2023-12-04T00:30:33;-1.60;99.90
36790;DHT22;22740;52.182;8.780;2023-12-04T00:36:35;-1.70;99.90
36790;DHT22;22740;52.182;8.780;2023-12-04T00:42:37;-1.70;99.90
36790;DHT22;22740;52.182;8.780;2023-12-04T00:48:39;-1.60;99.90
36790;DHT22;22740;52.182;8.780;2023-12-04T00:54:41;-1.70;99.90
36790;DHT22;22740;52.182;8.780;2023-12-04T01:00:43;-1.60;99.90
36790;DHT22;22740;52.182;8.780;2023-12-04T01:06:45;-1.60;99.90
36790;DHT22;22740;52.182;8.780;2023-12-04T01:12:46;-1.60;99.90
36790;DHT22;22740;52.182;8.780;2023-12-04T01:18:48;-1.60;99.90
36790;DHT22;22740;52.182;8.780;2023-12-04T01:24:50;-1.60;99.90
36790;DHT22;22740;52.182;8.780;2023-12-04T01:30:53;-1.60;99.90
36790;DHT22;22740;52.182;8.780;2023-12-04T01:36:55;-1.50;99.90
36790;DHT22;22740;52.182;8.780;2023-12-04T01:42:57;-1.50;99.90
36790;DHT22;22740;52.182;8.780;2023-12-04T01:48:59;-1.50;99.90
36790;DHT22;22740;52.182;8.780;2023-12-04T01:55:03;-1.40;99.90
36790;DHT22;22740;52.182;8.780;2023-12-04T02:01:06;-1.40;99.90
36790;DHT22;22740;52.182;8.780;2023-12-04T02:07:08;-1.40;99.90
36790;DHT22;22740;52.182;8.780;2023-12-04T02:13:11;-1.30;99.90
36790;DHT22;22740;52.182;8.780;2023-12-04T02:19:13;-1.30;99.90
36790;DHT22;22740;52.182;8.780;2023-12-04T02:25:15;-1.30;99.90
36790;DHT22;22740;52.182;8.780;2023-12-04T02:31:36;-1.30;99.90
36790;DHT22;22740;52.182;8.780;2023-12-04T02:37:41;-1.30;99.90
36790;DHT22;22740;52.182;8.780;2023-12-04T02:43:43;-1.40;99.90
36790;DHT22;22740;52.182;8.780;2023-12-04T02:49:45;-1.30;99.90
36790;DHT22;22740;52.182;8.780;2023-12-04T02:55:47;-1.30;99.90
36790;DHT22;22740;52.182;8.780;2023-12-04T03:01:49;-1.30;99.90
36790;DHT22;22740;52.182;8.780;2023-12-04T03:07:51;-1.30;99.90
36790;DHT22;22740;52.182;8.780;2023-12-04T03:13:53;-1.20;99.90
36790;DHT22;22740;52.182;8.780;2023-12-04T03:19:55;-1.20;99.90
36790;DHT22;22740;52.182;8.780;2023-12-04T03:25:57;-1.20;99.90
36790;DHT22;22740;52.182;8.780;2023-12-04T03:31:59;-1.30;99.90
36790;DHT22;22740;52.182;8.780;2023-12-04T03:38:01;-1.30;99.90
36790;DHT22;22740;52.182;8.780;2023-12-04T03:44:03;-1.40;99.90
36790;DHT22;22740;52.182;8.780;2023-12-04T03:50:06;-1.40;99.90
36790;DHT22;22740;52.182;8.780;2023-12-04T03:56:08;-1.50;99.90
36790;DHT22;22740;52.182;8.780;2023-12-04T04:02:12;-1.50;99.90
36790;DHT22;22740;52.182;8.780;2023-12-04T04:08:14;-1.60;99.90
36790;DHT22;22740;52.182;8.780;2023-12-04T04:14:16;-1.60;99.90
36790;DHT22;22740;52.182;8.780;2023-12-04T04:20:18;-1.50;99.90
36790;DHT22;22740;52.182;8.780;2023-12-04T04:26:20;-1.40;99.90
36790;DHT22;22740;52.182;8.780;2023-12-04T04:32:22;-1.20;99.90
36790;DHT22;22740;52.182;8.780;2023-12-04T04:38:23;-1.30;99.90
36790;DHT22;22740;52.182;8.780;2023-12-04T04:44:26;-1.20;99.90
36790;DHT22;22740;52.182;8.780;2023-12-04T04:50:28;-1.30;99.90
36790;DHT22;22740;52.182;8.780;2023-12-04T04:56:31;-1.20;99.90
36790;DHT22;22740;52.182;8.780;2023-12-04T05:02:32;-1.30;99.90
36790;DHT22;22740;52.182;8.780;2023-12-04T05:08:36;-1.30;99.90
36790;DHT22;22740;52.182;8.780;2023-12-04T05:14:37;-1.10;99.90
36790;DHT22;22740;52.182;8.780;2023-12-04T05:20:39;-1.00;99.90
36790;DHT22;22740;52.182;8.780;2023-12-04T05:26:41;-1.20;99.90
36790;DHT22;22740;52.182;8.780;2023-12-04T05:32:43;-1.10;99.90
36790;DHT22;22740;52.182;8.780;2023-12-04T05:38:46;-1.10;99.90
36790;DHT22;22740;52.182;8.780;2023-12-04T05:44:48;-1.30;99.90
36790;DHT22;22740;52.182;8.780;2023-12-04T05:50:50;-1.20;99.90
36790;DHT22;22740;52.182;8.780;2023-12-04T05:56:52;-1.10;99.90
36790;DHT22;22740;52.182;8.780;2023-12-04T06:02:54;-1.00;99.90
36790;DHT22;22740;52.182;8.780;2023-12-04T06:08:56;-1.10;99.90
36790;DHT22;22740;52.182;8.780;2023-12-04T06:14:58;-1.10;99.90
36790;DHT22;22740;52.182;8.780;2023-12-04T06:21:02;-1.10;99.90
36790;DHT22;22740;52.182;8.780;2023-12-04T06:27:04;-1.10;99.90
36790;DHT22;22740;52.182;8.780;2023-12-04T06:33:08;-1.10;99.90
36790;DHT22;22740;52.182;8.780;2023-12-04T06:39:11;-1.00;99.90
36790;DHT22;22740;52.182;8.780;2023-12-04T06:45:14;-1.10;99.90
36790;DHT22;22740;52.182;8.780;2023-12-04T06:51:16;-1.00;99.90
36790;DHT22;22740;52.182;8.780;2023-12-04T06:57:18;-1.10;99.90
36790;DHT22;22740;52.182;8.780;2023-12-04T07:03:20;-1.10;99.90
36790;DHT22;22740;52.182;8.780;2023-12-04T07:09:22;-1.10;99.90
36790;DHT22;22740;52.182;8.780;2023-12-04T07:15:24;-1.10;99.90
36790;DHT22;22740;52.182;8.780;2023-12-04T07:21:26;-1.00;99.90
36790;DHT22;22740;52.182;8.780;2023-12-04T07:27:28;-1.00;99.90
36790;DHT22;22740;52.182;8.780;2023-12-04T07:33:30;-1.10;99.90
36790;DHT22;22740;52.182;8.780;2023-12-04T07:39:32;-1.10;99.90
36790;DHT22;22740;52.182;8.780;2023-12-04T07:45:34;-1.10;99.90
36790;DHT22;22740;52.182;8.780;2023-12-04T07:51:37;-1.00;99.90
36790;DHT22;22740;52.182;8.780;2023-12-04T07:57:39;-1.10;99.90
36790;DHT22;22740;52.182;8.780;2023-12-04T08:03:42;-1.00;99.90
36790;DHT22;22740;52.182;8.780;2023-12-04T08:09:43;-1.00;99.90
36790;DHT22;22740;52.182;8.780;2023-12-04T08:15:46;-1.00;99.90
36790;DHT22;22740;52.182;8.780;2023-12-04T08:21:48;-1.00;99.90
36790;DHT22;22740;52.182;8.780;2023-12-04T08:27:50;-0.90;99.90
36790;DHT22;22740;52.182;8.780;2023-12-04T08:33:52;-0.80;99.90
36790;DHT22;22740;52.182;8.780;2023-12-04T08:39:54;-0.80;99.90
36790;DHT22;22740;52.182;8.780;2023-12-04T08:45:58;-0.80;99.90
36790;DHT22;22740;52.182;8.780;2023-12-04T08:52:02;-0.80;99.90
36790;DHT22;22740;52.182;8.780;2023-12-04T08:58:04;-0.70;99.90
36790;DHT22;22740;52.182;8.780;2023-12-04T09:04:08;-0.70;99.90
36790;DHT22;22740;52.182;8.780;2023-12-04T09:10:10;-0.60;99.90
36790;DHT22;22740;52.182;8.780;2023-12-04T09:16:26;-0.70;99.90
36790;DHT22;22740;52.182;8.780;2023-12-04T09:22:28;-0.60;99.90
36790;DHT22;22740;52.182;8.780;2023-12-04T09:28:39;-0.60;99.90
36790;DHT22;22740;52.182;8.780;2023-12-04T09:34:42;-0.50;99.90
36790;DHT22;22740;52.182;8.780;2023-12-04T09:40:44;-0.40;99.90
36790;DHT22;22740;52.182;8.780;2023-12-04T09:46:46;-0.40;99.90
36790;DHT22;22740;52.182;8.780;2023-12-04T09:52:49;-0.30;99.90
36790;DHT22;22740;52.182;8.780;2023-12-04T09:58:58;-0.20;99.90
36790;DHT22;22740;52.182;8.780;2023-12-04T10:05:02;-0.10;99.90
36790;DHT22;22740;52.182;8.780;2023-12-04T10:11:06;0.00;99.90
36790;DHT22;22740;52.182;8.780;2023-12-04T10:17:15;0.00;99.90
36790;DHT22;22740;52.182;8.780;2023-12-04T10:23:20;0.00;99.90
36790;DHT22;22740;52.182;8.780;2023-12-04T10:29:22;0.00;99.90
36790;DHT22;22740;52.182;8.780;2023-12-04T10:35:26;0.00;99.90
36790;DHT22;22740;52.182;8.780;2023-12-04T10:41:30;0.10;99.90
36790;DHT22;22740;52.182;8.780;2023-12-04T10:47:33;0.20;99.90
36790;DHT22;22740;52.182;8.780;2023-12-04T10:53:36;0.20;99.90
36790;DHT22;22740;52.182;8.780;2023-12-04T10:59:38;0.30;99.90
36790;DHT22;22740;52.182;8.780;2023-12-04T11:05:41;0.20;99.90
36790;DHT22;22740;52.182;8.780;2023-12-04T11:11:46;0.20;99.90
36790;DHT22;22740;52.182;8.780;2023-12-04T11:17:55;0.20;99.90
36790;DHT22;22740;52.182;8.780;2023-12-04T11:24:00;0.20;99.90
36790;DHT22;22740;52.182;8.780;2023-12-04T11:30:04;0.20;99.90
36790;DHT22;22740;52.182;8.780;2023-12-04T11:36:10;0.20;99.90
36790;DHT22;22740;52.182;8.780;2023-12-04T11:42:19;0.10;99.90
36790;DHT22;22740;52.182;8.780;2023-12-04T11:48:23;0.10;99.90
36790;DHT22;22740;52.182;8.780;2023-12-04T11:54:28;0.20;99.90
36790;DHT22;22740;52.182;8.780;2023-12-04T12:00:31;0.20;99.90
36790;DHT22;22740;52.182;8.780;2023-12-04T12:06:38;0.20;99.90
36790;DHT22;22740;52.182;8.780;2023-12-04T12:12:40;0.30;99.90
36790;DHT22;22740;52.182;8.780;2023-12-04T12:18:42;0.30;99.90
36790;DHT22;22740;52.182;8.780;2023-12-04T12:24:45;0.30;99.90
36790;DHT22;22740;52.182;8.780;2023-12-04T12:30:47;0.30;99.90
36790;DHT22;22740;52.182;8.780;2023-12-04T12:36:49;0.40;99.90
36790;DHT22;22740;52.182;8.780;2023-12-04T12:42:51;0.40;99.90
36790;DHT22;22740;52.182;8.780;2023-12-04T12:48:55;0.40;99.90
36790;DHT22;22740;52.182;8.780;2023-12-04T12:54:58;0.40;99.90
36790;DHT22;22740;52.182;8.780;2023-12-04T13:01:00;0.40;99.90
36790;DHT22;22740;52.182;8.780;2023-12-04T13:07:04;0.40;99.90
36790;DHT22;22740;52.182;8.780;2023-12-04T13:13:14;0.50;99.90
36790;DHT22;22740;52.182;8.780;2023-12-04T13:19:16;0.50;99.90
36790;DHT22;22740;52.182;8.780;2023-12-04T13:25:19;0.50;99.90
36790;DHT22;22740;52.182;8.780;2023-12-04T13:31:22;0.60;99.90
36790;DHT22;22740;52.182;8.780;2023-12-04T13:37:27;0.60;99.90
36790;DHT22;22740;52.182;8.780;2023-12-04T13:43:30;0.60;99.90
36790;DHT22;22740;52.182;8.780;2023-12-04T13:49:50;0.60;99.90
36790;DHT22;22740;52.182;8.780;2023-12-04T13:55:52;0.60;99.90
36790;DHT22;22740;52.182;8.780;2023-12-04T14:01:54;0.60;99.90
36790;DHT22;22740;52.182;8.780;2023-12-04T14:08:02;0.60;99.90
36790;DHT22;22740;52.182;8.780;2023-12-04T14:14:07;0.70;99.90
36790;DHT22;22740;52.182;8.780;2023-12-04T14:20:09;0.70;99.90
36790;DHT22;22740;52.182;8.780;2023-12-04T14:26:14;0.70;99.90
36790;DHT22;22740;52.182;8.780;2023-12-04T14:32:16;0.60;99.90
36790;DHT22;22740;52.182;8.780;2023-12-04T14:38:22;0.60;99.90
36790;DHT22;22740;52.182;8.780;2023-12-04T14:44:24;0.60;99.90
36790;DHT22;22740;52.182;8.780;2023-12-04T14:50:26;0.60;99.90
36790;DHT22;22740;52.182;8.780;2023-12-04T14:56:29;0.60;99.90
36790;DHT22;22740;52.182;8.780;2023-12-04T15:03:09;0.50;99.90
36790;DHT22;22740;52.182;8.780;2023-12-04T15:09:32;0.50;99.90
36790;DHT22;22740;52.182;8.780;2023-12-04T15:15:47;0.50;99.90
36790;DHT22;22740;52.182;8.780;2023-12-04T15:22:07;0.50;99.90
36790;DHT22;22740;52.182;8.780;2023-12-04T15:28:10;0.60;99.90
36790;DHT22;22740;52.182;8.780;2023-12-04T15:34:13;0.60;99.90
36790;DHT22;22740;52.182;8.780;2023-12-04T15:40:17;0.60;99.90
36790;DHT22;22740;52.182;8.780;2023-12-04T15:46:19;0.60;99.90
36790;DHT22;22740;52.182;8.780;2023-12-04T15:52:23;0.50;99.90
36790;DHT22;22740;52.182;8.780;2023-12-04T15:58:29;0.60;99.90
36790;DHT22;22740;52.182;8.780;2023-12-04T16:04:34;0.60;99.90
36790;DHT22;22740;52.182;8.780;2023-12-04T16:10:37;0.60;99.90
36790;DHT22;22740;52.182;8.780;2023-12-04T16:16:39;0.50;99.90
36790;DHT22;22740;52.182;8.780;2023-12-04T16:22:41;0.50;99.90
36790;DHT22;22740;52.182;8.780;2023-12-04T16:28:45;0.50;99.90
36790;DHT22;22740;52.182;8.780;2023-12-04T16:34:49;0.40;99.90
36790;DHT22;22740;52.182;8.780;2023-12-04T16:40:52;0.50;99.90
36790;DHT22;22740;52.182;8.780;2023-12-04T16:46:54;0.40;99.90
36790;DHT22;22740;52.182;8.780;2023-12-04T16:52:59;0.40;99.90
36790;DHT22;22740;52.182;8.780;2023-12-04T16:59:01;0.40;99.90
36790;DHT22;22740;52.182;8.780;2023-12-04T17:05:04;0.40;99.90
36790;DHT22;22740;52.182;8.780;2023-12-04T17:11:07;0.40;99.90
36790;DHT22;22740;52.182;8.780;2023-12-04T17:17:09;0.40;99.90
36790;DHT22;22740;52.182;8.780;2023-12-04T17:23:11;0.40;99.90
36790;DHT22;22740;52.182;8.780;2023-12-04T17:29:13;0.40;99.90
36790;DHT22;22740;52.182;8.780;2023-12-04T17:35:16;0.40;99.90
36790;DHT22;22740;52.182;8.780;2023-12-04T17:41:21;0.40;99.90
36790;DHT22;22740;52.182;8.780;2023-12-04T17:47:23;0.40;99.90
36790;DHT22;22740;52.182;8.780;2023-12-04T17:53:27;0.40;99.90
36790;DHT22;22740;52.182;8.780;2023-12-04T17:59:31;0.30;99.90
36790;DHT22;22740;52.182;8.780;2023-12-04T18:05:33;0.40;99.90
36790;DHT22;22740;52.182;8.780;2023-12-04T18:11:35;0.50;99.90
36790;DHT22;22740;52.182;8.780;2023-12-04T18:17:37;0.60;99.90
36790;DHT22;22740;52.182;8.780;2023-12-04T18:23:44;0.60;99.90
36790;DHT22;22740;52.182;8.780;2023-12-04T18:29:46;0.60;99.90
36790;DHT22;22740;52.182;8.780;2023-12-04T18:35:48;0.60;99.90
36790;DHT22;22740;52.182;8.780;2023-12-04T18:41:51;0.60;99.90
36790;DHT22;22740;52.182;8.780;2023-12-04T18:48:04;0.60;99.90
36790;DHT22;22740;52.182;8.780;2023-12-04T18:54:06;0.60;99.90
36790;DHT22;22740;52.182;8.780;2023-12-04T19:00:09;0.60;99.90
36790;DHT22;22740;52.182;8.780;2023-12-04T19:06:11;0.50;99.90
36790;DHT22;22740;52.182;8.780;2023-12-04T19:12:14;0.50;99.90
36790;DHT22;22740;52.182;8.780;2023-12-04T19:18:16;0.50;99.90
36790;DHT22;22740;52.182;8.780;2023-12-04T19:24:18;0.60;99.90
36790;DHT22;22740;52.182;8.780;2023-12-04T19:30:21;0.60;99.90
36790;DHT22;22740;52.182;8.780;2023-12-04T19:36:23;0.60;99.90
36790;DHT22;22740;52.182;8.780;2023-12-04T19:42:27;0.50;99.90
36790;DHT22;22740;52.182;8.780;2023-12-04T19:48:29;0.50;99.90
36790;DHT22;22740;52.182;8.780;2023-12-04T19:54:31;0.50;99.90
36790;DHT22;22740;52.182;8.780;2023-12-04T20:00:33;0.50;99.90
36790;DHT22;22740;52.182;8.780;2023-12-04T20:06:39;0.50;99.90
36790;DHT22;22740;52.182;8.780;2023-12-04T20:12:41;0.50;99.90
36790;DHT22;22740;52.182;8.780;2023-12-04T20:18:43;0.40;99.90
36790;DHT22;22740;52.182;8.780;2023-12-04T20:24:45;0.50;99.90
36790;DHT22;22740;52.182;8.780;2023-12-04T20:30:49;0.40;99.90
36790;DHT22;22740;52.182;8.780;2023-12-04T20:36:51;0.40;99.90
36790;DHT22;22740;52.182;8.780;2023-12-04T20:42:56;0.50;99.90
36790;DHT22;22740;52.182;8.780;2023-12-04T20:48:58;0.50;99.90
36790;DHT22;22740;52.182;8.780;2023-12-04T20:55:02;0.40;99.90
36790;DHT22;22740;52.182;8.780;2023-12-04T21:01:05;0.50;99.90
36790;DHT22;22740;52.182;8.780;2023-12-04T21:07:08;0.50;99.90
36790;DHT22;22740;52.182;8.780;2023-12-04T21:13:14;0.60;99.90
36790;DHT22;22740;52.182;8.780;2023-12-04T21:19:17;0.60;99.90
36790;DHT22;22740;52.182;8.780;2023-12-04T21:25:21;0.60;99.90
36790;DHT22;22740;52.182;8.780;2023-12-04T21:31:24;0.70;99.90
36790;DHT22;22740;52.182;8.780;2023-12-04T21:37:30;0.70;99.90
36790;DHT22;22740;52.182;8.780;2023-12-04T21:43:38;0.80;99.90
36790;DHT22;22740;52.182;8.780;2023-12-04T21:49:43;0.90;99.90
36790;DHT22;22740;52.182;8.780;2023-12-04T21:55:49;1.00;99.90
36790;DHT22;22740;52.182;8.780;2023-12-04T22:01:52;1.00;99.90
36790;DHT22;22740;52.182;8.780;2023-12-04T22:07:55;0.90;99.90
36790;DHT22;22740;52.182;8.780;2023-12-04T22:13:57;0.90;99.90
36790;DHT22;22740;52.182;8.780;2023-12-04T22:19:59;0.90;99.90
36790;DHT22;22740;52.182;8.780;2023-12-04T22:26:01;1.00;99.90
36790;DHT22;22740;52.182;8.780;2023-12-04T22:32:04;0.90;99.90
36790;DHT22;22740;52.182;8.780;2023-12-04T22:38:06;0.90;99.90
36790;DHT22;22740;52.182;8.780;2023-12-04T22:44:08;0.90;99.90
36790;DHT22;22740;52.182;8.780;2023-12-04T22:50:10;0.90;99.90
36790;DHT22;22740;52.182;8.780;2023-12-04T22:56:13;0.90;99.90
36790;DHT22;22740;52.182;8.780;2023-12-04T23:02:15;0.90;99.90
36790;DHT22;22740;52.182;8.780;2023-12-04T23:08:18;1.00;99.90
36790;DHT22;22740;52.182;8.780;2023-12-04T23:14:20;1.10;99.90
36790;DHT22;22740;52.182;8.780;2023-12-04T23:20:22;1.00;99.90
36790;DHT22;22740;52.182;8.780;2023-12-04T23:26:24;1.10;99.90
36790;DHT22;22740;52.182;8.780;2023-12-04T23:32:25;1.10;99.90
36790;DHT22;22740;52.182;8.780;2023-12-04T23:38:28;1.00;99.90
36790;DHT22;22740;52.182;8.780;2023-12-04T23:44:30;0.90;99.90
36790;DHT22;22740;52.182;8.780;2023-12-04T23:50:32;0.80;99.90
36790;DHT22;22740;52.182;8.780;2023-12-04T23:56:35;0.90;99.90
